Terminal Aerodrome Forecast
Issued by NWS

Home | Current Version | Previous Version | Text Only | Print | Product List | Glossary On
Versions: 1 2 3 4 5 6 7 8 9 10 11 12 13 14 15 16 17 18 19 20 21 22 23 24 25 26 27 28 29 30 31 32 33
000
FTUS43 KDMX 301740
TAFFOD
TAF
KFOD 301740Z 3018/0118 12010KT P6SM OVC007
     FM301930 13012KT P6SM SCT007 BKN110
     FM010100 13012KT P6SM -SHRA SCT020 BKN100
     FM010800 14013KT 4SM -TSRA BR BKN015CB
     FM011100 16010KT 5SM -SHRA BR BKN020=

USA.gov is the U.S. government's official web portal to all federal, state and local government web resources and services.